ADDS METAR Data INFO
IDs: Format: Raw Decoded Include TAF

Data at: 1415 UTC 12 Dec 2017

KCMX 121403Z AUTO 33008KT 3SM -SN SCT016 BKN024 OVC037 M12/M16 A3001 RMK AO2 P0000 T11221161
KCMX 121353Z AUTO 33009KT 1 1/4SM -SN BKN010 OVC025 M12/M16 A3000 RMK AO2 SLP184 P0001 T11221161
KCMX 121345Z AUTO 32011KT 1 1/2SM -SN BKN010 BKN023 OVC036 M12/M16 A3000 RMK AO2 P0001 T11221161
KCMX 121329Z AUTO 33009KT 1/2SM SN VV008 M12/M16 A3000 RMK AO2 P0001 T11221161
KCMX 121321Z AUTO 34009KT 1SM -SN VV009 M12/M16 A3000 RMK AO2 P0001 T11221161
KCMX 121253Z AUTO 33008KT 3/4SM -SN VV008 M12/M16 A3000 RMK AO2 SLP183 P0001 T11221161
KCMX 121232Z AUTO 32008KT 3/4SM -SN VV009 M12/M16 A3001 RMK AO2 P0000 T11221161 $
KCMX 121223Z AUTO 32008KT 1 1/2SM -SN OVC013 M12/M17 A3001 RMK AO2 P0000 T11221167 $
KCMX 121211Z AUTO 33008KT 3/4SM -SN VV013 M12/M16 A3000 RMK AO2 P0000 T11221161 $
KCMX 121156Z AUTO 33011KT 1 3/4SM -SN BKN019 BKN024 OVC038 M12/M17 A3001 RMK AO2 P0000 T11221172 $
KCMX 121153Z AUTO 33010KT 3SM -SN BKN023 BKN029 OVC038 M12/M18 A3001 RMK AO2 SNEMMB24 SLP184 P0000 60001 70005 T11221178 11122 21128 55002 $
KCMX 121132Z AUTO 33012KT 4SM -SN BKN016 BKN025 OVC034 M12/M17 A3000 RMK AO2 SNEMMB24 P0000 T11221172 $
KCMX 121126Z AUTO 32011G19KT 1SM -SN BKN016 OVC036 M12/M16 A3000 RMK AO2 SNEMMB24 P0000 T11221161 $
KCMX 121119Z AUTO 32013KT 3/4SM HZ BKN014 BKN030 OVC036 M12/M17 A3000 RMK AO2 SNEMM P0000 T11221167 PWINO FZRANO $
KCMX 121112Z AUTO 33011KT 1 3/4SM -SN BKN020 BKN031 OVC039 M12/M17 A3000 RMK AO2 P0000 T11221172 $
KCMX 121053Z AUTO 34009KT 3SM -SN BKN019 BKN027 OVC034 M12/M17 A3000 RMK AO2 SNB52 SLP182 P0000 T11221167 $
KCMX 121032Z AUTO 35013KT 3SM HZ FEW022 OVC027 M12/M17 A3000 RMK AO2 T11221172 PWINO FZRANO $
KCMX 121007Z AUTO 33018G22KT 3SM HZ FEW023 SCT030 OVC036 M12/M18 A3000 RMK AO2 T11221183 PWINO FZRANO $
KCMX 120953Z AUTO 34013KT 4SM HZ FEW020 BKN026 OVC037 M12/M18 A3000 RMK AO2 SLP183 T11221178 PWINO FZRANO $
KCMX 120944Z AUTO 33012KT 3SM HZ BKN021 OVC029 M12/M17 A3000 RMK AO2 T11221167 PWINO FZRANO $
KCMX 120928Z AUTO 33013KT 1 1/2SM HZ BKN017 OVC027 M12/M17 A3000 RMK AO2 T11221167 PWINO FZRANO $
KCMX 120920Z AUTO 34014KT 2SM HZ OVC017 M12/M17 A3001 RMK AO2 VIS 1 1/4V2 1/2 T11221167 PWINO FZRANO $
KCMX 120912Z AUTO 33013KT 1SM HZ VV013 M12/M17 A3001 RMK AO2 T11221167 PWINO FZRANO $
KCMX 120856Z AUTO 34011G21KT 1SM HZ VV009 M12/M16 A3001 RMK AO2 T11221161 PWINO FZRANO $
KCMX 120853Z AUTO 34013G21KT 3/4SM HZ VV010 M12/M16 A3001 RMK AO2 SNEMM SLP185 P0001 60001 T11221161 51004 PWINO FZRANO $
KCMX 120841Z AUTO 34011KT 3/4SM HZ BKN012 OVC020 M12/M16 A3002 RMK AO2 SNEMM P0001 T11221161 PWINO FZRANO $
KCMX 120820Z AUTO 35011KT 1SM HZ BKN015 OVC022 M12/M16 A3002 RMK AO2 SNEMM P0000 T11221161 PWINO FZRANO $
KCMX 120814Z AUTO 35012KT 3/4SM HZ BKN013 OVC021 M13/M17 A3001 RMK AO2 SNEMM P0000 T11281167 PWINO FZRANO $
KCMX 120806Z AUTO 35012G21KT 1 1/2SM -SN BKN019 BKN024 OVC032 M13/M17 A3001 RMK AO2 P0000 T11281172
KCMX 120753Z AUTO 35011KT 2SM -SN BKN019 BKN025 OVC029 M12/M17 A3001 RMK AO2 SLP181 P0000 T11221172
KCMX 120748Z AUTO 35013KT 2SM -SN BKN021 OVC031 M13/M17 A3001 RMK AO2 P0000
KCMX 120729Z AUTO 36013G20KT 3SM -SN BKN023 OVC029 M13/M18 A3000 RMK AO2 P0000 T11281178
KCMX 120653Z AUTO 35011KT 1 3/4SM -SN OVC019 M12/M17 A3000 RMK AO2 SLP181 P0000 T11221172
KCMX 120639Z AUTO 35011KT 1 3/4SM -SN OVC021 M12/M17 A3000 RMK AO2 P0000 T11221172
KCMX 120631Z AUTO 36017G21KT 2SM -SN OVC023 M12/M18 A3000 RMK AO2 P0000 T11221178
KCMX 120622Z AUTO 35015G24KT 1 3/4SM -SN OVC024 M12/M18 A2999 RMK AO2 VIS 3/4V3 P0000 T11221178
KCMX 120553Z AUTO 36015G22KT 4SM -SN BKN028 BKN032 OVC043 M12/M18 A2999 RMK AO2 SNE00B01E11B35 SLP179 P0000 60001 T11221178 11089 21122 51018
KCMX 120500Z AUTO 34015G23KT 4SM BLSN SCT019 BKN024 OVC043 M12/M17 A2998 RMK AO2 SNE00 P0000 T11171172
KCMX 120453Z AUTO 34012G23KT 2 1/2SM -SN BKN017 BKN026 OVC035 M12/M17 A2998 RMK AO2 PK WND 33026/0404 VIS 1V5 SLP176 P0000 T11171167 410331117
KCMX 120448Z AUTO 33014G23KT 1 1/4SM -SN BKN015 OVC023 M12/M16 A2998 RMK AO2 PK WND 33026/0404 P0000
KCMX 120430Z AUTO 34016G22KT 3/4SM -SN BKN012 OVC025 M11/M16 A2998 RMK AO2 PK WND 33026/0404 P0000 T11111156
KCMX 120426Z AUTO 35014G25KT 1SM -SN SCT014 BKN022 OVC027 M11/M16 A2997 RMK AO2 PK WND 33026/0404 P0000 T11111156
KCMX 120414Z AUTO 33016G25KT 2SM -SN SCT022 OVC028 M11/M17 A2997 RMK AO2 PK WND 33026/0404 P0000 T11111167
KCMX 120402Z AUTO 34016G26KT 1 1/2SM -SN SCT020 BKN025 OVC033 M11/M16 A2996 RMK AO2 P0000 T11111161
KCMX 120353Z AUTO 34020G26KT 3/4SM -SN BKN019 BKN025 OVC030 M11/M16 A2996 RMK AO2 PK WND 35029/0249 SLP167 P0000 T11111156
KCMX 120345Z AUTO 33018G27KT 1 1/4SM -SN BKN019 BKN028 OVC036 M11/M16 A2996 RMK AO2 PK WND 35029/0249 P0000 T11111156
KCMX 120336Z AUTO 35017G25KT 2SM -SN BKN023 OVC034 M11/M16 A2995 RMK AO2 PK WND 35029/0249 VIS 1 1/2V5 P0000 T11061161
KCMX 120257Z AUTO 35016G29KT 1SM -SN SCT014 OVC023 M11/M15 A2994 RMK AO2 PK WND 35029/0249 P0000 T11061150
KCMX 120248Z AUTO 34017G28KT 1/2SM SN BKN012 BKN021 OVC028 M11/M14 A2994 RMK AO2 PK WND 33032/0211 SLP160 P0000 60001 T11061144 51028
KCMX 120247Z AUTO 34016G28KT 1/2SM SN BKN012 OVC026 M11/M14 A2994 RMK AO2 PK WND 33032/0211 P0000
KCMX 120209Z AUTO 33021G30KT 1 1/4SM -SN OVC026 M10/M15 A2992 RMK AO2 PK WND 33030/0202 VIS 3/4V2 P0000 T11001150
KCMX 120202Z AUTO 33022G30KT 2SM -SN BKN026 OVC032 M09/M15 A2992 RMK AO2 PK WND 33030/0202 VIS 1 1/2V3 P0000 T10941150
KCMX 120153Z AUTO 34018G29KT 1 1/2SM -SN FEW020 BKN026 OVC032 M09/M15 A2992 RMK AO2 PK WND 34029/0146 SLP153 P0000 T10941150
KCMX 120053Z AUTO 33018G29KT 1 1/2SM -SN OVC020 M09/M13 A2990 RMK AO2 PK WND 32029/0051 SLP146 P0001 T10891133
KCMX 120041Z AUTO 34014G23KT 1 1/2SM -SN BKN019 OVC026 M08/M13 A2989 RMK AO2 PK WND 34028/2358 P0001 T10831133
KCMX 120030Z AUTO 34018G22KT 2 1/2SM -SN BKN021 OVC028 M08/M13 A2988 RMK AO2 PK WND 34028/2358 P0000 T10831133
KCMX 112353Z AUTO 35018G28KT 1 3/4SM -SN OVC024 M08/M13 A2985 RMK AO2 PK WND 35035/2334 PRESRR SLP130 P0000 60001 T10781128 11033 21078 53050
KCMX 112337Z AUTO 34023G35KT 2 1/2SM -SN OVC022 M08/M13 A2984 RMK AO2 PK WND 35035/2334 VIS 1 3/4V4 PRESRR P0000 T10781128
KCMX 112301Z AUTO 35020G34KT 1 1/2SM -SN SCT018 OVC024 M07/M12 A2980 RMK AO2 PK WND 34034/2254 P0000 T10721117
KCMX 112253Z AUTO 34025G31KT 2SM -SN BKN022 OVC027 M07/M12 A2979 RMK AO2 PK WND 34035/2219 UPB06E10B36E48SNE06B10E36B48 SLP108 P0000 T10721117
KCMX 112235Z AUTO 34018G29KT 4SM -SN BKN021 OVC027 M07/M12 A2977 RMK AO2 PK WND 34035/2219 UPB06E10SNE06B10 P0000 T10671117
KCMX 112225Z AUTO 34023G35KT 2 1/2SM -SN BKN019 OVC026 M07/M12 A2977 RMK AO2 PK WND 34035/2219 VIS 1 1/4V4 UPB06E10SNE06B10 P0000 T10671117
KCMX 112203Z AUTO 33021G28KT 4SM -SN BKN019 OVC025 M06/M11 A2976 RMK AO2 PK WND 34028/2201 P0000 T10611106
KCMX 112153Z AUTO 35017G24KT 2 1/2SM -SN OVC019 M06/M11 A2975 RMK AO2 PK WND 33036/2116 UPB02E05SNE02B05 SLP093 P0000 T10611106
KCMX 112146Z AUTO 34021G28KT 2 1/2SM -SN OVC017 M06/M11 A2974 RMK AO2 PK WND 33036/2116 VIS 1 1/2V5 UPB02E05SNE02B05 P0000 T10611106
KCMX 112122Z AUTO 33023G36KT 1 1/4SM -SN OVC015 M06/M09 A2972 RMK AO2 PK WND 33036/2116 UPB02E05SNE02B05 P0000 T10561094
KCMX 112114Z AUTO 33023G29KT 2 1/2SM -SN OVC015 M06/M09 A2971 RMK AO2 PK WND 33030/2059 VIS 1 1/4V4 UPB02E05SNE02B05 P0000 T10561094
KCMX 112053Z AUTO 33021G32KT 2SM -SN BKN014 OVC020 M06/M09 A2970 RMK AO2 PK WND 33032/2044 WSHFT 1951 VIS 1 1/2V4 UPB43E48SNE43B46E47B48 SLP077 P0000 60001 T10561089 53004
KCMX 112027Z AUTO 33020G28KT 2SM -SN OVC012 M04/M08 A2968 RMK AO2 PK WND 32028/2012 WSHFT 1951 VIS 1 1/4V3 P0000 T10441078
KCMX 112017Z AUTO 33019G28KT 1 1/2SM -SN OVC009 M04/M07 A2968 RMK AO2 PK WND 32028/2012 WSHFT 1951 CIG 007V013 P0000 T10441072
KCMX 112005Z AUTO 33022G27KT 2SM -SN OVC008 M04/M07 A2967 RMK AO2 PK WND 32027/2005 WSHFT 1951 CIG 007V013 P0000 T10391067
KCMX 112001Z AUTO 33016G25KT 1 3/4SM -SN OVC008 M04/M07 A2967 RMK AO2 CIG 007V013 P0000 T10391067
KCMX 111953Z AUTO 30017KT 1 1/2SM -SN BKN010 OVC015 M03/M07 A2967 RMK AO2 CIG 007V012 SLP065 P0001 T10331067
KCMX 111937Z AUTO 27012KT 1 1/2SM -SN BKN010 BKN017 OVC025 M04/M07 A2966 RMK AO2 CIG 008V014 P0001 T10441072
KCMX 111853Z AUTO 24004KT 3SM -SN BKN011 OVC014 M06/M09 A2967 RMK AO2 SNE1757B14 SLP067 P0000 T10561089
KCMX 111844Z AUTO 23004KT 3SM -SN OVC013 M06/M09 A2968 RMK AO2 SNE1757B14 P0000 T10611089
KCMX 111827Z AUTO 21005KT 4SM -SN BKN016 OVC032 M06/M09 A2968 RMK AO2 SNE1757B14 P0000 T10611094
KCMX 111753Z AUTO 21004KT 6SM -SN BKN043 OVC049 M06/M10 A2969 RMK AO2 SLP073 P0000 60002 T10611100 11061 21094 58017
KCMX 111744Z AUTO 22005KT 3SM -SN OVC043 M07/M10 A2969 RMK AO2 P0000 T10671100
KCMX 111719Z AUTO 21007KT 2 1/2SM -SN BKN035 OVC045 M07/M10 A2970 RMK AO2 P0000 T10671100
KCMX 111653Z AUTO 21008KT 1 3/4SM -SN BKN037 OVC046 M07/M11 A2971 RMK AO2 SLP081 P0000 T10721106
KCMX 111631Z AUTO 22007KT 2SM -SN OVC045 M07/M11 A2972 RMK AO2 P0000 T10721106
KCMX 111624Z AUTO 21008KT 3SM -SN BKN042 OVC050 M07/M11 A2973 RMK AO2 P0000 T10721106
KCMX 111603Z AUTO 21010KT 2SM -SN BKN032 BKN039 OVC047 M08/M11 A2973 RMK AO2 P0000 T10781111
KCMX 111553Z AUTO 20008KT 1 1/4SM -SN BKN026 OVC039 M08/M11 A2973 RMK AO2 SLP089 P0001 T10781111
KCMX 111523Z AUTO 20006KT 3/4SM -SN VV019 M08/M11 A2973 RMK AO2 P0000 T10831111
KCMX 111453Z AUTO 21006KT 1 1/4SM -SN OVC026 M09/M12 A2974 RMK AO2 SLP093 P0000 60001 T10891117 58015
KCMX 111353Z AUTO 19006KT 1 1/2SM -SN BR OVC019 M09/M12 A2975 RMK AO2 SLP098 P0001 T10941117
KCMX 111325Z AUTO 20005KT 1 1/2SM -SN OVC020 M09/M12 A2977 RMK AO2 P0000 T10941122
KCMX 111315Z AUTO 20005KT 2SM -SN OVC020 M09/M12 A2978 RMK AO2 P0000 T10941122
KCMX 111253Z AUTO 20007KT 1 3/4SM -SN OVC022 M09/M13 A2978 RMK AO2 SNB08 SLP109 P0000 T10941128
KCMX 111250Z AUTO 20008KT 1 3/4SM -SN OVC024 M09/M13 A2978 RMK AO2 SNB08 P0000
KCMX 111241Z AUTO 20009KT 1 3/4SM -SN OVC032 M09/M13 A2979 RMK AO2 SNB08 P0000 T10941128
KCMX 111153Z AUTO 19007KT 10SM OVC060 M09/M13 A2980 RMK AO2 SLP113 T10891133 11089 21111 57016
KCMX 111053Z AUTO 17006KT 10SM SCT024 OVC090 M09/M13 A2981 RMK AO2 SLP117 T10941133
KCMX 111012Z AUTO 19007KT 10SM BKN025 OVC100 M10/M14 A2983 RMK AO2 T11001139
KCMX 110953Z AUTO 19007KT 10SM FEW026 OVC110 M10/M14 A2984 RMK AO2 SLP126 T11001139
KCMX 110853Z AUTO 20008KT 10SM SCT110 M11/M14 A2985 RMK AO2 SLP130 T11061144 58035
KCMX 110812Z AUTO 18005KT 10SM FEW029 M11/M15 A2988 RMK AO2 T11061150
KCMX 110803Z AUTO 19006KT 10SM BKN029 M11/M15 A2989 RMK AO2 T11061150
KCMX 110753Z AUTO 19006KT 10SM BKN030 M11/M14 A2990 RMK AO2 SLP147 T11061144
KCMX 110721Z AUTO 19005KT 10SM SCT027 M11/M14 A2991 RMK AO2 T11111144
KCMX 110653Z AUTO 18004KT 10SM OVC026 M11/M14 A2992 RMK AO2 SLP156 T11061144
KCMX 110553Z AUTO 19005KT 10SM OVC025 M11/M15 A2995 RMK AO2 SLP166 T11061150 11106 21128 56006
KCMX 110453Z AUTO 19003KT 10SM OVC025 M11/M15 A2995 RMK AO2 SLP167 T11111150 410611128
KCMX 110353Z AUTO 17005KT 10SM OVC026 M11/M16 A2996 RMK AO2 SLP167 T11111156
KCMX 110253Z AUTO 12004KT 10SM OVC026 M12/M16 A2997 RMK AO2 SLP171 T11171156 58007